Time;durP1;ratioP1;P1;durP2;ratioP2;P2;SDS_P1;SDS_P2;PMS_P1;PMS_P2;Temp;Humidity;BMP_temperature;BMP_pressure;BME280_temperature;BME280_humidity;BME280_pressure;Samples;Min_cycle;Max_cycle;Signal;HPM_P1;HPM_P2
2022/10/08 00:01:17;;;;;;;11.82;4.28;;;;;;;;;;7385381;19;20006;-70
2022/10/08 00:03:45;;;;;;;11.70;4.53;;;;;;;;;;7389811;19;19998;-70
2022/10/08 00:06:28;;;;;;;12.90;4.35;;;;;;;;;;7388232;19;19999;-70
2022/10/08 00:08:57;;;;;;;10.90;4.50;;;;;;;;;;7389677;19;20447;-70
2022/10/08 00:11:29;;;;;;;12.07;4.80;;;;;;;;;;7385192;19;20007;-70
2022/10/08 00:13:54;;;;;;;9.48;4.38;;;;;;;;;;7389472;19;20007;-70
2022/10/08 00:16:39;;;;;;;10.00;4.43;;;;;;;;;;7389570;19;20485;-70
2022/10/08 00:19:11;;;;;;;9.98;4.30;;;;;;;;;;7389546;19;20003;-71
2022/10/08 00:21:38;;;;;;;14.23;4.35;;;;;;;;;;7386753;19;20332;-70
2022/10/08 00:24:05;;;;;;;10.13;4.15;;;;;;;;;;7387534;19;20031;-70
2022/10/08 00:26:32;;;;;;;10.98;4.32;;;;;;;;;;7388915;19;20010;-70
2022/10/08 00:29:00;;;;;;;9.70;4.85;;;;;;;;;;7387677;19;20002;-70
2022/10/08 00:31:32;;;;;;;9.55;4.28;;;;;;;;;;7386173;19;20014;-71
2022/10/08 00:33:58;;;;;;;9.63;4.10;;;;;;;;;;7389276;19;20071;-70
2022/10/08 00:36:30;;;;;;;8.18;4.28;;;;;;;;;;7390798;19;20077;-69
2022/10/08 00:39:01;;;;;;;8.32;4.05;;;;;;;;;;7386862;19;20018;-70
2022/10/08 00:41:29;;;;;;;8.70;3.90;;;;;;;;;;7385879;19;20067;-71
2022/10/08 00:44:02;;;;;;;9.13;4.00;;;;;;;;;;7388087;19;20461;-70
2022/10/08 00:46:48;;;;;;;8.32;4.07;;;;;;;;;;7391761;19;20548;-70
2022/10/08 00:49:17;;;;;;;12.20;4.18;;;;;;;;;;7387920;19;20472;-70
2022/10/08 00:51:53;;;;;;;11.18;5.30;;;;;;;;;;7385609;19;20007;-70
2022/10/08 00:54:20;;;;;;;11.32;4.65;;;;;;;;;;7392775;19;20030;-71
2022/10/08 00:56:53;;;;;;;11.48;4.70;;;;;;;;;;7395321;19;20349;-70
2022/10/08 00:59:19;;;;;;;10.65;4.32;;;;;;;;;;7395425;19;20003;-70
2022/10/08 01:01:44;;;;;;;9.52;3.92;;;;;;;;;;7390190;19;20010;-70
2022/10/08 01:04:12;;;;;;;11.07;3.95;;;;;;;;;;7397697;19;20026;-72
2022/10/08 01:06:46;;;;;;;10.40;4.28;;;;;;;;;;7393632;19;20003;-70
2022/10/08 01:09:22;;;;;;;9.15;3.92;;;;;;;;;;7393217;19;20010;-70
2022/10/08 01:12:02;;;;;;;7.78;4.10;;;;;;;;;;7389011;19;20006;-70
2022/10/08 01:14:38;;;;;;;10.75;3.80;;;;;;;;;;7395154;19;20009;-70
2022/10/08 01:17:15;;;;;;;9.18;3.78;;;;;;;;;;7394559;19;20445;-70
2022/10/08 01:20:20;;;;;;;9.68;3.60;;;;;;;;;;7392856;19;20009;-70
2022/10/08 01:22:52;;;;;;;10.10;3.67;;;;;;;;;;7391528;19;20006;-70
2022/10/08 01:25:32;;;;;;;10.48;3.60;;;;;;;;;;7394908;19;20005;-70
2022/10/08 01:28:04;;;;;;;11.95;3.47;;;;;;;;;;7392882;19;20036;-71
2022/10/08 01:30:34;;;;;;;10.77;3.80;;;;;;;;;;7393699;19;20014;-70
2022/10/08 01:33:11;;;;;;;9.73;3.33;;;;;;;;;;7393148;19;20006;-70
2022/10/08 01:35:38;;;;;;;7.35;3.90;;;;;;;;;;7394707;19;20010;-70
2022/10/08 01:38:07;;;;;;;6.75;3.22;;;;;;;;;;7393658;19;20003;-70
2022/10/08 01:40:38;;;;;;;7.82;3.05;;;;;;;;;;7393546;19;20003;-69
2022/10/08 01:43:06;;;;;;;9.15;3.20;;;;;;;;;;7393145;19;20002;-70
2022/10/08 01:45:37;;;;;;;8.00;3.30;;;;;;;;;;7395118;19;19999;-70
2022/10/08 01:48:13;;;;;;;9.65;3.22;;;;;;;;;;7394515;19;20018;-70
2022/10/08 01:51:03;;;;;;;11.50;3.50;;;;;;;;;;7393124;19;19999;-70
2022/10/08 01:53:33;;;;;;;5.78;3.13;;;;;;;;;;7393031;19;20007;-71
2022/10/08 01:56:01;;;;;;;7.10;3.10;;;;;;;;;;7394445;19;20106;-71
2022/10/08 01:58:46;;;;;;;7.90;3.28;;;;;;;;;;7391816;19;20066;-70
2022/10/08 02:01:19;;;;;;;8.50;2.80;;;;;;;;;;7391050;19;20078;-70
2022/10/08 02:04:31;;;;;;;7.53;3.13;;;;;;;;;;7393843;19;20005;-69
2022/10/08 02:06:36;;;;;;;9.27;3.35;;;;;;;;;;7392075;19;20006;-69
2022/10/08 02:09:02;;;;;;;8.30;3.58;;;;;;;;;;7393718;19;20018;-70
2022/10/08 02:11:28;;;;;;;15.20;3.65;;;;;;;;;;7388397;19;20003;-69
2022/10/08 02:13:53;;;;;;;8.52;3.50;;;;;;;;;;7393393;19;20021;-70
2022/10/08 02:16:29;;;;;;;6.75;2.85;;;;;;;;;;7393584;19;20027;-70
2022/10/08 02:19:11;;;;;;;7.82;3.42;;;;;;;;;;7390714;19;20070;-70
2022/10/08 02:21:39;;;;;;;7.32;3.03;;;;;;;;;;7390452;19;20003;-69
2022/10/08 02:24:12;;;;;;;9.02;3.00;;;;;;;;;;7393326;19;19999;-70
2022/10/08 02:26:45;;;;;;;7.72;3.28;;;;;;;;;;7393176;19;20419;-70
2022/10/08 02:29:46;;;;;;;8.70;3.10;;;;;;;;;;7391174;19;20002;-70
2022/10/08 02:32:25;;;;;;;9.63;2.90;;;;;;;;;;7389916;19;20007;-70
2022/10/08 02:35:00;;;;;;;8.98;2.85;;;;;;;;;;7393602;19;20212;-71
2022/10/08 02:37:41;;;;;;;7.30;2.53;;;;;;;;;;7392022;19;20344;-71
2022/10/08 02:40:09;;;;;;;;;;;;;;;;;;7394364;19;20698;-71
2022/10/08 02:42:36;;;;;;;;;;;;;;;;;;7391325;19;19914;-71
2022/10/08 02:45:01;;;;;;;;;;;;;;;;;;7394048;19;19915;-70
2022/10/08 02:47:29;;;;;;;;;;;;;;;;;;7392520;19;19985;-70
2022/10/08 02:49:56;;;;;;;;;;;;;;;;;;7391845;19;20015;-70
2022/10/08 02:52:23;;;;;;;;;;;;;;;;;;7389372;19;19911;-70
2022/10/08 02:54:50;;;;;;;;;;;;;;;;;;7392251;19;19919;-70
2022/10/08 02:57:19;;;;;;;;;;;;;;;;;;7393643;19;19918;-70
2022/10/08 02:59:45;;;;;;;;;;;;;;;;;;7390373;19;19919;-70
2022/10/08 03:02:14;;;;;;;;;;;;;;;;;;7389353;19;19926;-70
2022/10/08 03:04:45;;;;;;;;;;;;;;;;;;7391832;19;20480;-69
2022/10/08 03:07:12;;;;;;;;;;;;;;;;;;7392089;19;20345;-71
2022/10/08 03:09:39;;;;;;;;;;;;;;;;;;7391674;19;19947;-70
2022/10/08 03:12:05;;;;;;;;;;;;;;;;;;7390484;19;19926;-70
2022/10/08 03:14:33;;;;;;;;;;;;;;;;;;7389333;19;19923;-70
2022/10/08 03:16:58;;;;;;;;;;;;;;;;;;7386940;19;19926;-70
2022/10/08 03:19:23;;;;;;;;;;;;;;;;;;7391449;19;19918;-70
2022/10/08 03:21:52;;;;;;;;;;;;;;;;;;7386799;19;19998;-70
2022/10/08 03:24:17;;;;;;;;;;;;;;;;;;7389890;19;19951;-71
2022/10/08 03:26:43;;;;;;;;;;;;;;;;;;7390163;19;20337;-70
2022/10/08 03:29:08;;;;;;;;;;;;;;;;;;7391073;19;19914;-71
2022/10/08 03:31:34;;;;;;;;;;;;;;;;;;7388321;19;19925;-70
2022/10/08 03:33:59;;;;;;;;;;;;;;;;;;7391262;19;20408;-71
2022/10/08 03:36:25;;;;;;;;;;;;;;;;;;7391376;19;19919;-69
2022/10/08 03:38:50;;;;;;;;;;;;;;;;;;7389440;19;19915;-69
2022/10/08 03:41:16;;;;;;;;;;;;;;;;;;7388274;19;20787;-69
2022/10/08 03:43:41;;;;;;;;;;;;;;;;;;7391087;19;19919;-71
2022/10/08 03:46:07;;;;;;;;;;;;;;;;;;7390835;19;19919;-71
2022/10/08 03:48:33;;;;;;;;;;;;;;;;;;7391292;19;19917;-70
2022/10/08 03:50:59;;;;;;;;;;;;;;;;;;7388924;19;20333;-70
2022/10/08 03:53:25;;;;;;;;;;;;;;;;;;7388843;19;20358;-70
2022/10/08 03:55:51;;;;;;;;;;;;;;;;;;7390647;19;19926;-70
2022/10/08 03:58:17;;;;;;;;;;;;;;;;;;7388156;19;19932;-70
2022/10/08 04:00:42;;;;;;;;;;;;;;;;;;7389993;19;19934;-70
2022/10/08 04:03:08;;;;;;;;;;;;;;;;;;7393527;19;19957;-71
2022/10/08 04:05:33;;;;;;;;;;;;;;;;;;7324160;19;19918;-70
2022/10/08 04:07:58;;;;;;;;;;;;;;;;;;7393334;19;19911;-70
2022/10/08 04:10:23;;;;;;;;;;;;;;;;;;7391824;19;19921;-70
2022/10/08 04:12:48;;;;;;;;;;;;;;;;;;7393539;19;19923;-69
2022/10/08 04:15:14;;;;;;;;;;;;;;;;;;7390198;19;19979;-71
2022/10/08 04:17:40;;;;;;;;;;;;;;;;;;7389337;19;19927;-70
2022/10/08 04:20:05;;;;;;;;;;;;;;;;;;7388293;19;20384;-70
2022/10/08 04:22:30;;;;;;;;;;;;;;;;;;7285216;19;21480;-69
2022/10/08 04:24:56;;;;;;;;;;;;;;;;;;7391776;19;19932;-70
2022/10/08 04:27:21;;;;;;;;;;;;;;;;;;7392780;19;20368;-71
2022/10/08 04:29:46;;;;;;;;;;;;;;;;;;7387684;19;19930;-70
2022/10/08 04:32:11;;;;;;;;;;;;;;;;;;7384462;19;20028;-71
2022/10/08 04:34:37;;;;;;;;;;;;;;;;;;7387645;19;19933;-71
2022/10/08 04:37:02;;;;;;;;;;;;;;;;;;7391359;19;19919;-71
2022/10/08 04:39:30;;;;;;;;;;;;;;;;;;7386950;19;19922;-71
2022/10/08 04:41:55;;;;;;;;;;;;;;;;;;7383243;19;19927;-71
2022/10/08 04:44:20;;;;;;;;;;;;;;;;;;7387250;19;19918;-71
2022/10/08 04:46:46;;;;;;;;;;;;;;;;;;7388465;19;19915;-70
2022/10/08 04:49:11;;;;;;;;;;;;;;;;;;7388562;19;19978;-71
2022/10/08 04:51:36;;;;;;;;;;;;;;;;;;7387361;19;19926;-70
2022/10/08 04:54:02;;;;;;;;;;;;;;;;;;7386032;19;20261;-70
2022/10/08 04:56:28;;;;;;;;;;;;;;;;;;7389468;19;19907;-71
2022/10/08 04:58:56;;;;;;;;;;;;;;;;;;7386409;19;20314;-70
2022/10/08 05:01:22;;;;;;;;;;;;;;;;;;7385183;19;19957;-71
2022/10/08 05:03:48;;;;;;;;;;;;;;;;;;7387980;19;19915;-71
2022/10/08 05:06:15;;;;;;;;;;;;;;;;;;7388160;19;20007;-71
2022/10/08 05:08:41;;;;;;;;;;;;;;;;;;7387873;19;20004;-70
2022/10/08 05:11:06;;;;;;;;;;;;;;;;;;7385152;19;19906;-70
2022/10/08 05:13:31;;;;;;;;;;;;;;;;;;7386174;19;19939;-71
2022/10/08 05:16:01;;;;;;;;;;;;;;;;;;7387503;19;20301;-71
2022/10/08 05:18:26;;;;;;;;;;;;;;;;;;7386318;19;20304;-71
2022/10/08 05:20:51;;;;;;;;;;;;;;;;;;7386262;19;19914;-71
2022/10/08 05:23:17;;;;;;;;;;;;;;;;;;7386095;19;19923;-71
2022/10/08 05:25:48;;;;;;;;;;;;;;;;;;7388250;19;19995;-72
2022/10/08 05:28:13;;;;;;;;;;;;;;;;;;7387323;19;19970;-72
2022/10/08 05:30:39;;;;;;;;;;;;;;;;;;7387320;19;20252;-70
2022/10/08 05:33:04;;;;;;;;;;;;;;;;;;7386512;19;19914;-70
2022/10/08 05:35:29;;;;;;;;;;;;;;;;;;7388918;19;19922;-70
2022/10/08 05:37:55;;;;;;;;;;;;;;;;;;7390394;19;19918;-71
2022/10/08 05:40:20;;;;;;;;;;;;;;;;;;7391867;19;19966;-70
2022/10/08 05:42:46;;;;;;;;;;;;;;;;;;7397477;19;19922;-71
2022/10/08 05:45:11;;;;;;;;;;;;;;;;;;7398931;19;19914;-71
2022/10/08 05:47:42;;;;;;;;;;;;;;;;;;7399065;19;20231;-69
2022/10/08 05:50:09;;;;;;;;;;;;;;;;;;7396229;19;20698;-70
2022/10/08 05:52:35;;;;;;;;;;;;;;;;;;7397514;19;19949;-71
2022/10/08 05:55:00;;;;;;;;;;;;;;;;;;7395130;19;20396;-70
2022/10/08 05:57:25;;;;;;;;;;;;;;;;;;7394171;19;20394;-70
2022/10/08 05:59:50;;;;;;;;;;;;;;;;;;7396487;19;19917;-71
2022/10/08 06:02:16;;;;;;;;;;;;;;;;;;7393596;19;20543;-71
2022/10/08 06:04:41;;;;;;;;;;;;;;;;;;7398088;19;19914;-69
2022/10/08 06:07:06;;;;;;;;;;;;;;;;;;7397492;19;19942;-70
2022/10/08 06:09:31;;;;;;;;;;;;;;;;;;7392782;19;20250;-71
2022/10/08 06:11:57;;;;;;;;;;;;;;;;;;7391815;19;20337;-71
2022/10/08 06:14:23;;;;;;;;;;;;;;;;;;7394504;19;20324;-70
2022/10/08 06:16:48;;;;;;;;;;;;;;;;;;7394066;19;19923;-71
2022/10/08 06:19:13;;;;;;;;;;;;;;;;;;7397677;19;19980;-70
2022/10/08 06:21:38;;;;;;;;;;;;;;;;;;7392662;19;20649;-71
2022/10/08 06:24:05;;;;;;;;;;;;;;;;;;7395136;19;19918;-71
2022/10/08 06:26:32;;;;;;;;;;;;;;;;;;7393796;19;19922;-70
2022/10/08 06:28:57;;;;;;;;;;;;;;;;;;7398323;19;19915;-70
2022/10/08 06:31:22;;;;;;;;;;;;;;;;;;7390473;19;19946;-70
2022/10/08 06:33:48;;;;;;;;;;;;;;;;;;7394640;19;19914;-70
2022/10/08 06:36:18;;;;;;;;;;;;;;;;;;7391552;19;19911;-71
2022/10/08 06:38:47;;;;;;;;;;;;;;;;;;7389482;19;19932;-70
2022/10/08 06:41:13;;;;;;;;;;;;;;;;;;7393753;19;19938;-70
2022/10/08 06:43:38;;;;;;;;;;;;;;;;;;7392631;19;19917;-70
2022/10/08 06:46:04;;;;;;;;;;;;;;;;;;7397065;19;19914;-70
2022/10/08 06:48:30;;;;;;;;;;;;;;;;;;7391038;19;20009;-71
2022/10/08 06:50:59;;;;;;;;;;;;;;;;;;7390545;19;19918;-71
2022/10/08 06:53:25;;;;;;;;;;;;;;;;;;7393608;19;19914;-71
2022/10/08 06:55:54;;;;;;;;;;;;;;;;;;7394807;19;19910;-71
2022/10/08 06:58:19;;;;;;;;;;;;;;;;;;7388822;19;19915;-71
2022/10/08 07:00:45;;;;;;;;;;;;;;;;;;7391091;19;19926;-71
2022/10/08 07:03:10;;;;;;;;;;;;;;;;;;7390700;19;19906;-71
2022/10/08 07:05:35;;;;;;;;;;;;;;;;;;7391939;19;19921;-71
2022/10/08 07:08:00;;;;;;;;;;;;;;;;;;7395729;19;19974;-70
2022/10/08 07:10:25;;;;;;;;;;;;;;;;;;7390629;19;19918;-70
2022/10/08 07:12:51;;;;;;;;;;;;;;;;;;7390370;19;19915;-71
2022/10/08 07:15:16;;;;;;;;;;;;;;;;;;7391614;19;19934;-74
2022/10/08 07:17:41;;;;;;;;;;;;;;;;;;7390549;19;19918;-70
2022/10/08 07:20:06;;;;;;;;;;;;;;;;;;7390795;19;19926;-71
2022/10/08 07:22:32;;;;;;;;;;;;;;;;;;7392241;19;19911;-66
2022/10/08 07:24:57;;;;;;;;;;;;;;;;;;7390080;19;19981;-67
2022/10/08 07:27:22;;;;;;;;;;;;;;;;;;7381779;19;19918;-67
2022/10/08 07:29:48;;;;;;;;;;;;;;;;;;7388237;19;19931;-67
2022/10/08 07:32:13;;;;;;;;;;;;;;;;;;7384930;19;19915;-67
2022/10/08 07:34:38;;;;;;;;;;;;;;;;;;7387036;19;19918;-67
2022/10/08 07:37:03;;;;;;;;;;;;;;;;;;7387128;19;19922;-69
2022/10/08 07:39:29;;;;;;;;;;;;;;;;;;7387554;19;19919;-67
2022/10/08 07:41:54;;;;;;;;;;;;;;;;;;7386871;19;19919;-67
2022/10/08 07:44:19;;;;;;;;;;;;;;;;;;7386896;19;19926;-66
2022/10/08 07:46:46;;;;;;;;;;;;;;;;;;7390131;19;19970;-67
2022/10/08 07:49:12;;;;;;;;;;;;;;;;;;7388059;19;19918;-67
2022/10/08 07:51:37;;;;;;;;;;;;;;;;;;7387017;19;19970;-67
2022/10/08 07:54:04;;;;;;;;;;;;;;;;;;7387387;19;19975;-68
2022/10/08 07:56:30;;;;;;;;;;;;;;;;;;7386212;19;19918;-67
2022/10/08 07:58:55;;;;;;;;;;;;;;;;;;7386735;19;19921;-67
2022/10/08 08:01:22;;;;;;;;;;;;;;;;;;7386575;19;19988;-66
2022/10/08 08:03:54;;;;;;;;;;;;;;;;;;7386860;19;19920;-66
2022/10/08 08:06:20;;;;;;;;;;;;;;;;;;7389239;19;19926;-67
2022/10/08 08:08:45;;;;;;;;;;;;;;;;;;7386706;19;19915;-67
2022/10/08 08:11:12;;;;;;;;;;;;;;;;;;7384829;19;19931;-67
2022/10/08 08:13:38;;;;;;;;;;;;;;;;;;7388680;19;19907;-68
2022/10/08 08:16:08;;;;;;;;;;;;;;;;;;7388464;19;19911;-67
2022/10/08 08:18:34;;;;;;;;;;;;;;;;;;7387528;19;20268;-66
2022/10/08 08:21:01;;;;;;;;;;;;;;;;;;7387944;19;19970;-68
2022/10/08 08:23:30;;;;;;;;;;;;;;;;;;7385609;19;19918;-67
2022/10/08 08:25:58;;;;;;;;;;;;;;;;;;7388507;19;19918;-66
2022/10/08 08:28:23;;;;;;;;;;;;;;;;;;7385461;19;20429;-67
2022/10/08 08:30:49;;;;;;;;;;;;;;;;;;7384158;19;19918;-66
2022/10/08 08:33:14;;;;;;;;;;;;;;;;;;7385808;19;19910;-72
2022/10/08 08:35:39;;;;;;;;;;;;;;;;;;7385412;19;19914;-71
2022/10/08 08:38:04;;;;;;;;;;;;;;;;;;7386061;19;19915;-71
2022/10/08 08:40:30;;;;;;;;;;;;;;;;;;7382781;19;19923;-71
2022/10/08 08:42:55;;;;;;;;;;;;;;;;;;7385824;19;20245;-72
2022/10/08 08:45:24;;;;;;;;;;;;;;;;;;7384121;19;20332;-72
2022/10/08 08:48:01;;;;;;;;;;;;;;;;;;7388772;19;19939;-72
2022/10/08 08:50:31;;;;;;;;;;;;;;;;;;7381360;19;19911;-71
2022/10/08 08:52:56;;;;;;;;;;;;;;;;;;7386419;19;19914;-72
2022/10/08 08:55:42;;;;;;;;;;;;;;;;;;7384199;19;20384;-70
2022/10/08 08:58:23;;;;;;;;;;;;;;;;;;7385178;19;20340;-72
2022/10/08 09:00:54;;;;;;;;;;;;;;;;;;7387042;19;19903;-72
2022/10/08 09:03:25;;;;;;;;;;;;;;;;;;7385306;19;20321;-71
2022/10/08 09:05:56;;;;;;;;;;;;;;;;;;7386103;19;20279;-71
2022/10/08 09:08:23;;;;;;;;;;;;;;;;;;7386079;19;20021;-72
2022/10/08 09:10:48;;;;;;;;;;;;;;;;;;7385477;19;20525;-71
2022/10/08 09:13:19;;;;;;;;;;;;;;;;;;7382160;19;19911;-73
2022/10/08 09:15:45;;;;;;;;;;;;;;;;;;7394792;19;20250;-72
2022/10/08 09:18:12;;;;;;;;;;;;;;;;;;7391352;19;19922;-73
2022/10/08 09:20:38;;;;;;;;;;;;;;;;;;7393890;19;19914;-73
2022/10/08 09:23:09;;;;;;;;;;;;;;;;;;7390371;19;20242;-73
2022/10/08 09:25:34;;;;;;;;;;;;;;;;;;7394337;19;20260;-74
2022/10/08 09:28:02;;;;;;;;;;;;;;;;;;7394126;19;19919;-74
2022/10/08 09:30:28;;;;;;;;;;;;;;;;;;7389882;19;19911;-72
2022/10/08 09:32:54;;;;;;;;;;;;;;;;;;7389660;19;19914;-72
2022/10/08 09:35:19;;;;;;;;;;;;;;;;;;7391898;19;19911;-72
2022/10/08 09:37:46;;;;;;;;;;;;;;;;;;7390942;19;19918;-72
2022/10/08 09:40:17;;;;;;;;;;;;;;;;;;7389807;19;19919;-71
2022/10/08 09:42:42;;;;;;;;;;;;;;;;;;7390867;19;20286;-70
2022/10/08 09:45:37;;;;;;;;;;;;;;;;;;7394084;19;19935;-71
2022/10/08 09:48:17;;;;;;;;;;;;;;;;;;7393447;19;19910;-72
2022/10/08 09:50:47;;;;;;;;;;;;;;;;;;7393071;19;20376;-71
2022/10/08 09:53:12;;;;;;;;;;;;;;;;;;7393023;19;19998;-72
2022/10/08 09:55:37;;;;;;;;;;;;;;;;;;7394272;19;20013;-72
2022/10/08 09:58:04;;;;;;;;;;;;;;;;;;7392966;19;19939;-72
2022/10/08 10:00:34;;;;;;;;;;;;;;;;;;7393628;19;19919;-71
2022/10/08 10:03:00;;;;;;;;;;;;;;;;;;7393192;19;19976;-70
2022/10/08 10:05:27;;;;;;;;;;;;;;;;;;7395567;19;19915;-71
2022/10/08 10:07:53;;;;;;;;;;;;;;;;;;7395237;19;19919;-72
2022/10/08 10:10:24;;;;;;;;;;;;;;;;;;7393504;19;20380;-72
2022/10/08 10:12:52;;;;;;;;;;;;;;;;;;7391007;19;19914;-71
2022/10/08 10:15:20;;;;;;;;;;;;;;;;;;7394774;19;19919;-71
2022/10/08 10:17:56;;;;;;;;;;;;;;;;;;7391214;19;19935;-71
2022/10/08 10:20:25;;;;;;;;;;;;;;;;;;7391577;19;19932;-71
2022/10/08 10:22:55;;;;;;;;;;;;;;;;;;7392221;19;19970;-72
2022/10/08 10:25:39;;;;;;;;;;;;;;;;;;7393473;19;19934;-71
2022/10/08 10:28:13;;;;;;;;;;;;;;;;;;7393033;19;19914;-71
2022/10/08 10:30:46;;;;;;;;;;;;;;;;;;7392437;19;20407;-71
2022/10/08 10:33:17;;;;;;;;;;;;;;;;;;7391919;19;19915;-71
2022/10/08 10:35:50;;;;;;;;;;;;;;;;;;7392986;19;19926;-71
2022/10/08 10:38:27;;;;;;;;;;;;;;;;;;7391191;19;20258;-71
2022/10/08 10:41:01;;;;;;;;;;;;;;;;;;7395336;19;20380;-71
2022/10/08 10:43:36;;;;;;;;;;;;;;;;;;7391100;19;19919;-71
2022/10/08 10:46:21;;;;;;;;;;;;;;;;;;7392476;19;20264;-71
2022/10/08 10:48:46;;;;;;;;;;;;;;;;;;7392032;19;19919;-65
2022/10/08 10:51:20;;;;;;;;;;;;;;;;;;7387282;19;19944;-65
2022/10/08 10:54:07;;;;;;;;;;;;;;;;;;7392123;19;19915;-66
2022/10/08 10:56:37;;;;;;;;;;;;;;;;;;7393851;19;19942;-66
2022/10/08 10:59:09;;;;;;;;;;;;;;;;;;7380654;19;19929;-65
2022/10/08 11:01:41;;;;;;;;;;;;;;;;;;7387492;19;20014;-66
2022/10/08 11:04:09;;;;;;;;;;;;;;;;;;7385327;19;19919;-66
2022/10/08 11:06:35;;;;;;;;;;;;;;;;;;7391190;19;19923;-65
2022/10/08 11:09:18;;;;;;;;;;;;;;;;;;7388288;19;19935;-66
2022/10/08 11:11:46;;;;;;;;;;;;;;;;;;7387504;19;19918;-66
2022/10/08 11:14:11;;;;;;;;;;;;;;;;;;7388080;19;19925;-67
2022/10/08 11:16:42;;;;;;;;;;;;;;;;;;7389092;19;20268;-66
2022/10/08 11:19:32;;;;;;;;;;;;;;;;;;7386726;19;19923;-66
2022/10/08 11:22:00;;;;;;;;;;;;;;;;;;7388720;19;19919;-68
2022/10/08 11:24:33;;;;;;;;;;;;;;;;;;7389331;19;19926;-66
2022/10/08 11:27:17;;;;;;;;;;;;;;;;;;7389698;19;19951;-66
2022/10/08 11:29:59;;;;;;;;;;;;;;;;;;7389653;19;19932;-67
2022/10/08 11:32:25;;;;;;;;;;;;;;;;;;7388814;19;19998;-66
2022/10/08 11:35:04;;;;;;;;;;;;;;;;;;7390652;19;19927;-64
2022/10/08 11:37:32;;;;;;;;;;;;;;;;;;7389504;19;19911;-66
2022/10/08 11:40:13;;;;;;;;;;;;;;;;;;7389258;19;19915;-67
2022/10/08 11:42:50;;;;;;;;;;;;;;;;;;7390455;19;20349;-67
2022/10/08 11:45:24;;;;;;;;;;;;;;;;;;7388355;19;20400;-67
2022/10/08 11:47:53;;;;;;;;;;;;;;;;;;7390870;19;19914;-66
2022/10/08 11:50:32;;;;;;;;;;;;;;;;;;7386990;19;19919;-67
2022/10/08 11:53:14;;;;;;;;;;;;;;;;;;7388038;19;19935;-68
2022/10/08 11:55:47;;;;;;;;;;;;;;;;;;7389531;19;19915;-71
2022/10/08 11:58:20;;;;;;;;;;;;;;;;;;7392203;19;20256;-71
2022/10/08 12:00:46;;;;;;;;;;;;;;;;;;7388588;19;19919;-72
2022/10/08 12:03:23;;;;;;;;;;;;;;;;;;7391684;19;20732;-72
2022/10/08 12:05:51;;;;;;;;;;;;;;;;;;7390844;19;19921;-72
2022/10/08 12:08:36;;;;;;;;;;;;;;;;;;7388735;19;19914;-73
2022/10/08 12:11:19;;;;;;;;;;;;;;;;;;7393038;19;20216;-72
2022/10/08 12:14:05;;;;;;;;;;;;;;;;;;7393535;19;19918;-72
2022/10/08 12:16:49;;;;;;;;;;;;;;;;;;7389935;19;19919;-72
2022/10/08 12:22:01;;;;;;;;;;;;;;;;;;7390577;19;20237;-71
2022/10/08 12:24:50;;;;;;;;;;;;;;;;;;7392189;19;19921;-72
2022/10/08 12:27:15;;;;;;;;;;;;;;;;;;7390355;19;19942;-71
2022/10/08 12:29:59;;;;;;;;;;;;;;;;;;7392072;19;20111;-71
2022/10/08 12:32:25;;;;;;;;;;;;;;;;;;7390068;19;20011;-70
2022/10/08 12:34:51;;;;;;;;;;;;;;;;;;7390240;19;19918;-70
2022/10/08 12:37:31;;;;;;;;;;;;;;;;;;7389707;19;19922;-71
2022/10/08 12:39:59;;;;;;;;;;;;;;;;;;7389106;19;19926;-72
2022/10/08 12:42:27;;;;;;;;;;;;;;;;;;7389499;19;19915;-71
2022/10/08 12:45:15;;;;;;;;;;;;;;;;;;7389067;19;20384;-71
2022/10/08 12:47:48;;;;;;;;;;;;;;;;;;7386340;19;19910;-71
2022/10/08 12:50:22;;;;;;;;;;;;;;;;;;7381940;19;20492;-71
2022/10/08 12:52:47;;;;;;;;;;;;;;;;;;7383801;19;19974;-71
2022/10/08 12:55:17;;;;;;;;;;;;;;;;;;7384696;19;19919;-71
2022/10/08 12:57:43;;;;;;;;;;;;;;;;;;7383977;19;19918;-71
2022/10/08 13:00:09;;;;;;;;;;;;;;;;;;7383903;19;19922;-70
2022/10/08 13:02:41;;;;;;;;;;;;;;;;;;7384940;19;19925;-70
2022/10/08 13:05:23;;;;;;;;;;;;;;;;;;7388307;19;19919;-71
2022/10/08 13:07:48;;;;;;;;;;;;;;;;;;7390584;19;19911;-71
2022/10/08 13:10:18;;;;;;;;;;;;;;;;;;7387713;19;19918;-71
2022/10/08 13:12:56;;;;;;;;;;;;;;;;;;7388261;19;19917;-71
2022/10/08 13:15:23;;;;;;;;;;;;;;;;;;7388092;19;19927;-70
2022/10/08 13:17:49;;;;;;;;;;;;;;;;;;7387257;19;19923;-71
2022/10/08 13:20:16;;;;;;;;;;;;;;;;;;7387138;19;19918;-71
2022/10/08 13:22:42;;;;;;;;;;;;;;;;;;7385069;19;20516;-71
2022/10/08 13:25:26;;;;;;;;;;;;;;;;;;7387828;19;19919;-71
2022/10/08 13:28:07;;;;;;;;;;;;;;;;;;7386598;19;19922;-71
2022/10/08 13:30:32;;;;;;;;;;;;;;;;;;7387635;19;19932;-70
2022/10/08 13:33:17;;;;;;;;;;;;;;;;;;7386579;19;19919;-69
2022/10/08 13:35:49;;;;;;;;;;;;;;;;;;7387259;19;19914;-70
2022/10/08 13:38:18;;;;;;;;;;;;;;;;;;7387028;19;19919;-70
2022/10/08 13:40:57;;;;;;;;;;;;;;;;;;7384428;19;19939;-71
2022/10/08 13:43:22;;;;;;;;;;;;;;;;;;7384965;19;20289;-71
2022/10/08 13:45:47;;;;;;;;;;;;;;;;;;7387840;19;19918;-70
2022/10/08 13:48:13;;;;;;;;;;;;;;;;;;7386366;19;19942;-69
2022/10/08 13:50:42;;;;;;;;;;;;;;;;;;7387746;19;19919;-72
2022/10/08 13:53:08;;;;;;;;;;;;;;;;;;7386458;19;19925;-70
2022/10/08 13:55:35;;;;;;;;;;;;;;;;;;7387430;19;20341;-71
2022/10/08 13:58:01;;;;;;;;;;;;;;;;;;7387104;19;19946;-72
2022/10/08 14:00:27;;;;;;;;;;;;;;;;;;7386571;19;20261;-71
2022/10/08 14:02:53;;;;;;;;;;;;;;;;;;7392196;19;19930;-71
2022/10/08 14:05:18;;;;;;;;;;;;;;;;;;7394887;19;20300;-72
2022/10/08 14:07:45;;;;;;;;;;;;;;;;;;7393858;19;19923;-71
2022/10/08 14:10:11;;;;;;;;;;;;;;;;;;7393932;19;19923;-70
2022/10/08 14:12:37;;;;;;;;;;;;;;;;;;7393180;19;20252;-70
2022/10/08 14:15:02;;;;;;;;;;;;;;;;;;7394437;19;19915;-71
2022/10/08 14:17:27;;;;;;;;;;;;;;;;;;7392609;19;19919;-69
2022/10/08 14:19:56;;;;;;;;;;;;;;;;;;7392590;19;20345;-70
2022/10/08 14:22:21;;;;;;;;;;;;;;;;;;7391496;19;19918;-71
2022/10/08 14:24:46;;;;;;;;;;;;;;;;;;7393955;19;20355;-71
2022/10/08 14:27:12;;;;;;;;;;;;;;;;;;7393532;19;19919;-70
2022/10/08 14:29:37;;;;;;;;;;;;;;;;;;7393375;19;19925;-69
2022/10/08 14:32:03;;;;;;;;;;;;;;;;;;7389866;19;20345;-69
2022/10/08 14:34:28;;;;;;;;;;;;;;;;;;7393973;19;19918;-71
2022/10/08 14:36:54;;;;;;;;;;;;;;;;;;7393376;19;19938;-71
2022/10/08 14:39:20;;;;;;;;;;;;;;;;;;7395287;19;19921;-70
2022/10/08 14:41:45;;;;;;;;;;;;;;;;;;7389662;19;19915;-70
2022/10/08 14:44:15;;;;;;;;;;;;;;;;;;7393028;19;19915;-69
2022/10/08 14:46:40;;;;;;;;;;;;;;;;;;7392370;19;19914;-70
2022/10/08 14:49:05;;;;;;;;;;;;;;;;;;7390792;19;19921;-71
2022/10/08 14:51:37;;;;;;;;;;;;;;;;;;7389632;19;20276;-70
2022/10/08 14:54:02;;;;;;;;;;;;;;;;;;7392737;19;19923;-70
2022/10/08 14:56:27;;;;;;;;;;;;;;;;;;7390730;19;19934;-71
2022/10/08 14:58:52;;;;;;;;;;;;;;;;;;7392349;19;19935;-71
2022/10/08 15:01:18;;;;;;;;;;;;;;;;;;7389198;19;19923;-71
2022/10/08 15:03:44;;;;;;;;;;;;;;;;;;7390320;19;20266;-71
2022/10/08 15:06:09;;;;;;;;;;;;;;;;;;7391867;19;20039;-72
2022/10/08 15:08:34;;;;;;;;;;;;;;;;;;7393160;19;19911;-70
2022/10/08 15:11:01;;;;;;;;;;;;;;;;;;7389675;19;19915;-71
2022/10/08 15:13:26;;;;;;;;;;;;;;;;;;7394605;19;19914;-71
2022/10/08 15:15:51;;;;;;;;;;;;;;;;;;7391741;19;19926;-71
2022/10/08 15:18:16;;;;;;;;;;;;;;;;;;7391930;19;19923;-71
2022/10/08 15:20:42;;;;;;;;;;;;;;;;;;7391079;19;20331;-71
2022/10/08 15:23:09;;;;;;;;;;;;;;;;;;7388188;19;20329;-71
2022/10/08 15:25:34;;;;;;;;;;;;;;;;;;7390972;19;20336;-72
2022/10/08 15:27:59;;;;;;;;;;;;;;;;;;7390196;19;20007;-72
2022/10/08 15:30:24;;;;;;;;;;;;;;;;;;7390395;19;19922;-71
2022/10/08 15:32:50;;;;;;;;;;;;;;;;;;7389474;19;19978;-71
2022/10/08 15:35:17;;;;;;;;;;;;;;;;;;7389209;19;20346;-70
2022/10/08 15:37:42;;;;;;;;;;;;;;;;;;7391029;19;19930;-71
2022/10/08 15:40:08;;;;;;;;;;;;;;;;;;7389897;19;19918;-70
2022/10/08 15:42:33;;;;;;;;;;;;;;;;;;7389078;19;19914;-71
2022/10/08 15:44:58;;;;;;;;;;;;;;;;;;7390417;19;19918;-71
2022/10/08 15:47:23;;;;;;;;;;;;;;;;;;7390350;19;19914;-71
2022/10/08 15:49:48;;;;;;;;;;;;;;;;;;7390659;19;19911;-71
2022/10/08 15:52:16;;;;;;;;;;;;;;;;;;7388161;19;20264;-69
2022/10/08 15:54:41;;;;;;;;;;;;;;;;;;7391609;19;19932;-71
2022/10/08 15:57:07;;;;;;;;;;;;;;;;;;7390195;19;20308;-72
2022/10/08 15:59:32;;;;;;;;;;;;;;;;;;7389940;19;20340;-71
2022/10/08 16:01:58;;;;;;;;;;;;;;;;;;7386902;19;19917;-71
2022/10/08 16:04:23;;;;;;;;;;;;;;;;;;7390205;19;19931;-70
2022/10/08 16:06:48;;;;;;;;;;;;;;;;;;7388789;19;19919;-71
2022/10/08 16:09:14;;;;;;;;;;;;;;;;;;7388005;19;19966;-71
2022/10/08 16:11:40;;;;;;;;;;;;;;;;;;7384292;19;19919;-70
2022/10/08 16:14:07;;;;;;;;;;;;;;;;;;7388223;19;19915;-72
2022/10/08 16:16:32;;;;;;;;;;;;;;;;;;7390269;19;19995;-72
2022/10/08 16:18:59;;;;;;;;;;;;;;;;;;7390186;19;20342;-71
2022/10/08 16:21:25;;;;;;;;;;;;;;;;;;7379856;19;19914;-69
2022/10/08 16:23:51;;;;;;;;;;;;;;;;;;7386602;19;19918;-73
2022/10/08 16:26:19;;;;;;;;;;;;;;;;;;7389872;19;19914;-70
2022/10/08 16:28:45;;;;;;;;;;;;;;;;;;7387212;19;19915;-71
2022/10/08 16:31:11;;;;;;;;;;;;;;;;;;7386388;19;19914;-71
2022/10/08 16:33:36;;;;;;;;;;;;;;;;;;7386347;19;19909;-71
2022/10/08 16:36:05;;;;;;;;;;;;;;;;;;7384696;19;19910;-69
2022/10/08 16:38:34;;;;;;;;;;;;;;;;;;7388309;19;19921;-71